createdAt,value
2023-03-28T11:27:15.497Z,10.22
2023-03-28T11:28:07.559Z,10.44
2023-03-28T11:29:07.529Z,10.41
2023-03-28T11:30:07.489Z,10.60
2023-03-28T11:31:07.538Z,10.82
2023-03-28T11:32:07.470Z,10.86
2023-03-28T11:33:07.516Z,10.68
2023-03-28T11:34:07.414Z,10.79
2023-03-28T11:35:07.423Z,10.82
2023-03-28T11:36:07.503Z,10.91
2023-03-28T11:37:07.365Z,11.02
2023-03-28T11:38:07.338Z,10.74
2023-03-28T11:39:07.362Z,10.85
2023-03-28T11:40:08.959Z,10.78
2023-03-28T11:41:07.311Z,10.97
2023-03-28T11:42:07.272Z,10.53
2023-03-28T11:43:07.288Z,10.81
2023-03-28T11:44:07.238Z,11.02
2023-03-28T11:45:07.238Z,11.21
2023-03-28T11:46:07.290Z,11.36
2023-03-28T11:47:07.198Z,11.29
2023-03-28T11:48:07.247Z,11.07
2023-03-28T11:49:07.163Z,10.81
2023-03-28T11:50:07.145Z,10.94
2023-03-28T11:51:07.139Z,11.07
2023-03-28T11:52:07.093Z,11.09
2023-03-28T11:53:07.114Z,11.09
2023-03-28T11:54:07.080Z,10.96
2023-03-28T11:55:07.054Z,11.11
2023-03-28T11:56:07.053Z,10.68
2023-03-28T11:57:07.087Z,10.61
2023-03-28T11:58:07.027Z,10.41
2023-03-28T11:59:07.014Z,10.78
2023-03-28T12:00:06.970Z,10.82
2023-03-28T12:01:07.003Z,10.85
2023-03-28T12:02:06.965Z,10.88
2023-03-28T12:03:07.008Z,11.00
2023-03-28T12:04:07.010Z,10.97
2023-03-28T12:05:06.874Z,10.89
2023-03-28T12:06:08.997Z,10.84
2023-03-28T12:07:06.867Z,10.96
2023-03-28T12:08:06.848Z,10.97
2023-03-28T12:09:06.867Z,11.03
2023-03-28T12:10:06.792Z,11.14
2023-03-28T12:11:06.805Z,11.09
2023-03-28T12:12:06.753Z,11.00
2023-03-28T12:13:06.753Z,10.94
2023-03-28T12:14:12.238Z,11.10
2023-03-28T12:15:06.724Z,11.17
2023-03-28T12:16:06.694Z,11.29
2023-03-28T12:17:06.692Z,11.69
2023-03-28T12:18:06.723Z,11.79
2023-03-28T12:19:06.658Z,11.88
2023-03-28T12:20:06.640Z,12.34
2023-03-28T12:21:06.640Z,12.79
2023-03-28T12:22:06.579Z,13.10
2023-03-28T12:23:06.589Z,13.12
2023-03-28T12:24:06.547Z,13.36
2023-03-28T12:25:06.554Z,13.36
2023-03-28T12:26:06.531Z,13.38
2023-03-28T12:27:06.536Z,13.48
2023-03-28T12:28:06.483Z,13.54
2023-03-28T12:29:06.470Z,13.91
2023-03-28T12:30:06.445Z,14.39
2023-03-28T12:31:06.487Z,14.75
2023-03-28T12:32:06.444Z,14.62
2023-03-28T12:33:06.452Z,15.13
2023-03-28T12:34:06.395Z,14.77
2023-03-28T12:35:06.370Z,14.28
2023-03-28T12:36:06.404Z,13.63
2023-03-28T12:37:06.373Z,13.46
2023-03-28T12:38:06.344Z,13.30
2023-03-28T12:39:06.309Z,13.07
2023-03-28T12:40:06.308Z,12.77
2023-03-28T12:41:06.274Z,13.29
2023-03-28T12:42:06.284Z,13.42
2023-03-28T12:43:06.244Z,13.04
2023-03-28T12:44:06.224Z,13.07
2023-03-28T12:45:06.212Z,13.44
2023-03-28T12:46:06.271Z,14.06
2023-03-28T12:47:06.192Z,14.20
2023-03-28T12:48:06.210Z,14.15
2023-03-28T12:49:06.165Z,14.54
2023-03-28T12:50:06.149Z,14.96
2023-03-28T12:51:06.121Z,14.69
2023-03-28T12:52:06.134Z,14.18
2023-03-28T12:53:06.114Z,14.91
2023-03-28T12:54:06.068Z,15.34
2023-03-28T12:55:06.061Z,15.89
2023-03-28T12:56:06.060Z,16.09
2023-03-28T12:57:06.062Z,16.05
2023-03-28T12:58:06.030Z,16.01
2023-03-28T12:59:06.022Z,16.21
2023-03-28T13:00:06.006Z,16.58
2023-03-28T13:01:06.037Z,16.61
2023-03-28T13:02:05.970Z,16.93
2023-03-28T13:03:06.040Z,16.41
2023-03-28T13:04:05.975Z,16.89
2023-03-28T13:05:05.919Z,17.19
2023-03-28T13:06:05.915Z,16.43
2023-03-28T13:07:05.908Z,15.92
2023-03-28T13:08:05.899Z,16.09
2023-03-28T13:09:05.859Z,16.52
2023-03-28T13:10:05.861Z,16.28
2023-03-28T13:11:05.851Z,15.75
2023-03-28T13:12:05.812Z,15.53
2023-03-28T13:13:05.840Z,15.72
2023-03-28T13:14:05.785Z,15.50
2023-03-28T13:15:05.801Z,15.29
2023-03-28T13:16:05.838Z,15.17
2023-03-28T13:17:05.755Z,15.10
2023-03-28T13:18:05.758Z,15.23
2023-03-28T13:19:05.748Z,15.02
2023-03-28T13:20:05.712Z,14.61
2023-03-28T13:21:05.722Z,14.51
2023-03-28T13:22:05.700Z,14.39
2023-03-28T13:23:05.681Z,14.06
2023-03-28T13:24:05.667Z,14.20
2023-03-28T13:25:05.648Z,14.03
2023-03-28T13:26:05.643Z,13.73
2023-03-28T13:27:05.640Z,13.51
2023-03-28T13:28:05.601Z,13.29
2023-03-28T13:29:05.624Z,13.22
2023-03-28T13:30:05.598Z,13.12
2023-03-28T13:31:05.639Z,13.05
2023-03-28T13:32:05.572Z,13.00
2023-03-28T13:33:05.577Z,13.03
2023-03-28T13:34:05.533Z,12.83
2023-03-28T13:35:05.579Z,12.90
2023-03-28T13:36:05.943Z,12.64
2023-03-28T13:37:05.488Z,12.65
2023-03-28T13:38:05.466Z,12.62
2023-03-28T13:39:05.468Z,12.75
2023-03-28T13:40:05.441Z,12.86
2023-03-28T13:41:05.448Z,12.85
2023-03-28T13:42:05.407Z,13.15
2023-03-28T13:43:05.422Z,13.05
2023-03-28T13:44:05.377Z,13.45
2023-03-28T13:45:05.382Z,13.69
2023-03-28T13:46:05.354Z,13.54
2023-03-28T13:47:05.387Z,13.46
2023-03-28T13:48:13.225Z,13.59
2023-03-28T13:49:05.336Z,13.69
2023-03-28T13:50:05.306Z,13.88
2023-03-28T13:51:05.285Z,13.71
2023-03-28T13:52:05.283Z,13.33
2023-03-28T13:53:05.261Z,13.36
2023-03-28T13:54:05.236Z,13.48
2023-03-28T13:55:05.241Z,13.23
2023-03-28T13:56:05.225Z,13.14
2023-03-28T13:57:05.249Z,13.01
2023-03-28T13:58:05.193Z,12.78
2023-03-28T13:59:05.167Z,12.60
2023-03-28T14:00:05.189Z,12.85
2023-03-28T14:01:05.175Z,12.82
2023-03-28T14:02:05.178Z,12.19
2023-03-28T14:03:05.159Z,12.35
2023-03-28T14:04:05.099Z,12.65
2023-03-28T14:05:05.105Z,13.15
2023-03-28T14:06:05.088Z,13.60
2023-03-28T14:07:05.666Z,14.12
2023-03-28T14:08:05.038Z,14.54
2023-03-28T14:09:05.028Z,14.52
2023-03-28T14:10:05.067Z,15.35
2023-03-28T14:11:04.992Z,15.56
2023-03-28T14:12:05.007Z,15.31
2023-03-28T14:13:04.982Z,15.14
2023-03-28T14:14:06.656Z,15.92
2023-03-28T14:15:04.951Z,15.71
2023-03-28T14:16:05.013Z,15.49
2023-03-28T14:17:04.911Z,15.59
2023-03-28T14:18:05.010Z,15.75
2023-03-28T14:19:04.944Z,15.90
2023-03-28T14:20:05.010Z,15.80
2023-03-28T14:21:04.859Z,16.25
2023-03-28T14:22:04.862Z,16.41
2023-03-28T14:23:04.836Z,16.64
2023-03-28T14:24:04.831Z,17.26
2023-03-28T14:25:04.852Z,17.66
2023-03-28T14:26:04.842Z,17.93
2023-03-28T14:27:04.789Z,17.63
2023-03-28T14:28:04.789Z,17.87
2023-03-28T14:29:04.786Z,17.38
2023-03-28T14:30:04.761Z,17.00
2023-03-28T14:31:04.757Z,16.17
2023-03-28T14:32:04.774Z,15.96
2023-03-28T14:33:04.761Z,15.49
2023-03-28T14:34:04.745Z,14.99
2023-03-28T14:35:04.727Z,15.14
2023-03-28T14:36:04.728Z,15.35
2023-03-28T14:37:04.681Z,15.97
2023-03-28T14:38:04.706Z,16.58
2023-03-28T14:39:04.757Z,16.64
2023-03-28T14:40:04.677Z,17.12
2023-03-28T14:41:04.647Z,17.38
2023-03-28T14:42:04.660Z,17.87
2023-03-28T14:43:04.634Z,18.08
2023-03-28T14:44:04.605Z,17.14
2023-03-28T14:45:04.607Z,17.11
2023-03-28T14:46:04.641Z,17.00
2023-03-28T14:47:04.585Z,16.66
2023-03-28T14:48:04.584Z,16.15
2023-03-28T14:49:04.542Z,15.90
2023-03-28T14:50:04.547Z,15.43
2023-03-28T14:51:04.557Z,15.28
2023-03-28T14:52:04.540Z,15.03
2023-03-28T14:53:04.525Z,14.55
2023-03-28T14:54:04.529Z,14.45
2023-03-28T14:55:04.495Z,14.46
2023-03-28T14:56:06.419Z,14.37
2023-03-28T14:57:04.505Z,14.20
2023-03-28T14:58:04.461Z,14.06
2023-03-28T14:59:04.456Z,13.59
2023-03-28T15:00:04.468Z,13.60
2023-03-28T15:01:04.554Z,13.46
2023-03-28T15:02:04.542Z,13.41
2023-03-28T15:03:04.449Z,13.62
2023-03-28T15:04:04.399Z,13.57
2023-03-28T15:05:04.384Z,13.48
2023-03-28T15:06:04.384Z,13.41
2023-03-28T15:07:04.608Z,13.39
2023-03-28T15:08:16.255Z,13.33
2023-03-28T15:09:16.242Z,13.28
2023-03-28T15:10:16.261Z,13.41
2023-03-28T15:11:16.234Z,13.19
2023-03-28T15:12:16.207Z,13.25
2023-03-28T15:13:17.391Z,13.29
2023-03-28T15:14:16.173Z,13.41
2023-03-28T15:15:16.189Z,13.44
2023-03-28T15:16:16.218Z,13.45
2023-03-28T15:17:16.141Z,13.33
2023-03-28T15:18:16.134Z,12.96
